Arenas Valley, NM

2:28 PM MDT on September 28, 2016 (GMT -0600)
SUNRISE COUNTRY ESTATES | | Change Station

Elev 6168 ft 32.79 °N, 108.23 °W | Updated 1 minute ago

Scattered Clouds
Scattered Clouds
79.2 °F
Feels Like 80 °F
N
2.2
Wind Variable Wind from SSE

Today
High -- | Low -- °F
--% Chance of Precip.
Yesterday
High -- | Low -- °F
Precip. -- in
Pressure 30.25 in
Visibility 10.0 miles
Clouds Scattered Clouds 5500 ft
Heat Index 80 °F
Dew Point 54 °F
Humidity 42%
Rainfall 0.00 in
Snow Depth Not available.
7:05 AM 7:00 PM
Waning Crescent, 4% visible
METAR KSVC 282015Z AUTO 15010G17KT 10SM SCT055 25/10 A3025 RMK AO2 T02500098
Pressure 30.25 in
Visibility 10.0 miles
Clouds Scattered Clouds 5500 ft
Heat Index 80 °F
Dew Point 54 °F
Humidity 42%
Rainfall 0.00 in
Snow Depth Not available.
7:05 AM 7:00 PM
Waning Crescent, 4% visible
METAR KSVC 282015Z AUTO 15010G17KT 10SM SCT055 25/10 A3025 RMK AO2 T02500098

10-Day Weather Forecast

Almanac

Astronomy

Sep. 28, 2016 Rise Set
Actual Time
Civil Twilight
Nautical Twilight
Astronomical Twilight
Moon
Length of Visible Light
Length of Day
Tomorrow will be .
, % of the Moon is Illuminated

Today's Extremes

State Highs State Lows

Community

WunderPhotos

Upload Photos

1,942,318 photos uploaded!

WunderBlog® & News

Nearby

Air Quality

  Air Quality AQ Index Pollutant
Not available.

Snow Depth

Station Depth Elevation

Earthquake Activity

City Distance Mag. Time & Date
Minimum magnitude displayed is 2.5.

Coastal Water Temperatures

Place Temperature

Stations

Nearby Weather Stations

Station Location Temp. Windchill Dew Point Humidity Wind Precip. Elev Updated Type
                   

Watches & Warnings

There are currently no watches in effect.